sensor_id;sensor_type;location;lat;lon;timestamp;P1;durP1;ratioP1;P2;durP2;ratioP2
6739;SDS011;3407;49.882;10.920;2023-03-01T00:01:17;13.70;;;9.43;;
6739;SDS011;3407;49.882;10.920;2023-03-01T00:06:15;16.23;;;10.70;;
6739;SDS011;3407;49.882;10.920;2023-03-01T00:16:12;19.50;;;10.83;;
6739;SDS011;3407;49.882;10.920;2023-03-01T00:21:10;18.43;;;10.67;;
6739;SDS011;3407;49.882;10.920;2023-03-01T00:26:07;16.60;;;10.70;;
6739;SDS011;3407;49.882;10.920;2023-03-01T00:31:05;15.27;;;9.40;;
6739;SDS011;3407;49.882;10.920;2023-03-01T00:36:06;17.20;;;11.07;;
6739;SDS011;3407;49.882;10.920;2023-03-01T00:41:03;16.03;;;9.93;;
6739;SDS011;3407;49.882;10.920;2023-03-01T00:46:00;17.83;;;10.17;;
6739;SDS011;3407;49.882;10.920;2023-03-01T00:50:56;16.87;;;10.03;;
6739;SDS011;3407;49.882;10.920;2023-03-01T00:55:52;19.70;;;11.03;;
6739;SDS011;3407;49.882;10.920;2023-03-01T01:00:47;15.53;;;11.20;;
6739;SDS011;3407;49.882;10.920;2023-03-01T01:05:43;15.03;;;10.30;;
6739;SDS011;3407;49.882;10.920;2023-03-01T01:10:38;11.67;;;9.67;;
6739;SDS011;3407;49.882;10.920;2023-03-01T01:15:34;15.67;;;10.63;;
6739;SDS011;3407;49.882;10.920;2023-03-01T01:20:30;14.63;;;9.93;;
6739;SDS011;3407;49.882;10.920;2023-03-01T01:25:25;18.73;;;10.13;;
6739;SDS011;3407;49.882;10.920;2023-03-01T01:30:21;16.67;;;10.47;;
6739;SDS011;3407;49.882;10.920;2023-03-01T01:35:16;17.27;;;9.57;;
6739;SDS011;3407;49.882;10.920;2023-03-01T01:40:12;16.27;;;10.20;;
6739;SDS011;3407;49.882;10.920;2023-03-01T01:45:28;16.53;;;10.10;;
6739;SDS011;3407;49.882;10.920;2023-03-01T01:50:26;16.60;;;10.40;;
6739;SDS011;3407;49.882;10.920;2023-03-01T01:55:24;11.97;;;9.40;;
6739;SDS011;3407;49.882;10.920;2023-03-01T02:00:23;15.47;;;10.23;;
6739;SDS011;3407;49.882;10.920;2023-03-01T02:10:41;15.40;;;9.63;;
6739;SDS011;3407;49.882;10.920;2023-03-01T02:15:38;16.87;;;10.60;;
6739;SDS011;3407;49.882;10.920;2023-03-01T02:20:38;15.63;;;9.47;;
6739;SDS011;3407;49.882;10.920;2023-03-01T02:31:01;15.37;;;9.87;;
6739;SDS011;3407;49.882;10.920;2023-03-01T02:36:17;14.37;;;9.60;;
6739;SDS011;3407;49.882;10.920;2023-03-01T02:41:16;19.37;;;10.83;;
6739;SDS011;3407;49.882;10.920;2023-03-01T02:46:16;19.57;;;10.17;;
6739;SDS011;3407;49.882;10.920;2023-03-01T02:51:18;12.57;;;9.03;;
6739;SDS011;3407;49.882;10.920;2023-03-01T02:56:24;14.30;;;9.23;;
6739;SDS011;3407;49.882;10.920;2023-03-01T03:01:20;12.70;;;9.70;;
6739;SDS011;3407;49.882;10.920;2023-03-01T03:06:16;14.43;;;10.03;;
6739;SDS011;3407;49.882;10.920;2023-03-01T03:11:12;18.73;;;11.47;;
6739;SDS011;3407;49.882;10.920;2023-03-01T03:16:07;16.53;;;10.47;;
6739;SDS011;3407;49.882;10.920;2023-03-01T03:21:03;20.70;;;10.20;;
6739;SDS011;3407;49.882;10.920;2023-03-01T03:26:05;17.43;;;10.20;;
6739;SDS011;3407;49.882;10.920;2023-03-01T03:31:01;16.43;;;10.20;;
6739;SDS011;3407;49.882;10.920;2023-03-01T03:35:59;18.30;;;12.00;;
6739;SDS011;3407;49.882;10.920;2023-03-01T03:41:02;20.33;;;11.00;;
6739;SDS011;3407;49.882;10.920;2023-03-01T03:46:00;19.43;;;11.47;;
6739;SDS011;3407;49.882;10.920;2023-03-01T03:51:00;16.13;;;10.07;;
6739;SDS011;3407;49.882;10.920;2023-03-01T03:55:56;17.13;;;11.07;;
6739;SDS011;3407;49.882;10.920;2023-03-01T04:00:53;17.23;;;11.23;;
6739;SDS011;3407;49.882;10.920;2023-03-01T04:05:51;21.33;;;11.03;;
6739;SDS011;3407;49.882;10.920;2023-03-01T04:10:48;16.00;;;11.10;;
6739;SDS011;3407;49.882;10.920;2023-03-01T04:15:45;16.13;;;12.30;;
6739;SDS011;3407;49.882;10.920;2023-03-01T04:20:45;15.70;;;10.57;;
6739;SDS011;3407;49.882;10.920;2023-03-01T04:25:42;22.53;;;11.87;;
6739;SDS011;3407;49.882;10.920;2023-03-01T04:30:41;14.60;;;9.83;;
6739;SDS011;3407;49.882;10.920;2023-03-01T04:35:37;16.90;;;10.77;;
6739;SDS011;3407;49.882;10.920;2023-03-01T04:40:33;17.93;;;10.37;;
6739;SDS011;3407;49.882;10.920;2023-03-01T04:45:29;19.13;;;10.70;;
6739;SDS011;3407;49.882;10.920;2023-03-01T04:50:27;17.93;;;11.13;;
6739;SDS011;3407;49.882;10.920;2023-03-01T04:55:23;16.33;;;9.93;;
6739;SDS011;3407;49.882;10.920;2023-03-01T05:00:21;18.63;;;9.73;;
6739;SDS011;3407;49.882;10.920;2023-03-01T05:05:17;14.00;;;11.57;;
6739;SDS011;3407;49.882;10.920;2023-03-01T05:10:13;17.73;;;10.67;;
6739;SDS011;3407;49.882;10.920;2023-03-01T05:15:08;18.03;;;10.87;;
6739;SDS011;3407;49.882;10.920;2023-03-01T05:20:05;16.63;;;10.23;;
6739;SDS011;3407;49.882;10.920;2023-03-01T05:25:03;15.83;;;11.30;;
6739;SDS011;3407;49.882;10.920;2023-03-01T05:30:01;18.43;;;11.03;;
6739;SDS011;3407;49.882;10.920;2023-03-01T05:35:08;18.57;;;11.20;;
6739;SDS011;3407;49.882;10.920;2023-03-01T05:40:04;16.90;;;10.90;;
6739;SDS011;3407;49.882;10.920;2023-03-01T05:45:00;19.57;;;11.80;;
6739;SDS011;3407;49.882;10.920;2023-03-01T05:49:55;19.20;;;12.50;;
6739;SDS011;3407;49.882;10.920;2023-03-01T05:54:51;15.83;;;11.33;;
6739;SDS011;3407;49.882;10.920;2023-03-01T05:59:46;20.67;;;12.20;;
6739;SDS011;3407;49.882;10.920;2023-03-01T06:04:42;20.83;;;13.33;;
6739;SDS011;3407;49.882;10.920;2023-03-01T06:09:37;19.27;;;11.50;;
6739;SDS011;3407;49.882;10.920;2023-03-01T06:14:33;17.00;;;11.30;;
6739;SDS011;3407;49.882;10.920;2023-03-01T06:19:28;18.60;;;10.30;;
6739;SDS011;3407;49.882;10.920;2023-03-01T06:24:24;17.20;;;11.97;;
6739;SDS011;3407;49.882;10.920;2023-03-01T06:29:19;17.43;;;12.43;;
6739;SDS011;3407;49.882;10.920;2023-03-01T06:34:15;31.83;;;18.73;;
6739;SDS011;3407;49.882;10.920;2023-03-01T06:39:10;27.60;;;15.93;;
6739;SDS011;3407;49.882;10.920;2023-03-01T06:44:06;20.17;;;12.93;;
6739;SDS011;3407;49.882;10.920;2023-03-01T06:49:01;22.87;;;12.50;;
6739;SDS011;3407;49.882;10.920;2023-03-01T06:54:03;22.93;;;12.87;;
6739;SDS011;3407;49.882;10.920;2023-03-01T06:58:59;22.33;;;13.70;;
6739;SDS011;3407;49.882;10.920;2023-03-01T07:03:55;22.13;;;12.63;;
6739;SDS011;3407;49.882;10.920;2023-03-01T07:08:50;24.90;;;13.87;;
6739;SDS011;3407;49.882;10.920;2023-03-01T07:13:46;21.90;;;14.20;;
6739;SDS011;3407;49.882;10.920;2023-03-01T07:18:41;21.97;;;12.50;;
6739;SDS011;3407;49.882;10.920;2023-03-01T07:23:37;20.83;;;13.33;;
6739;SDS011;3407;49.882;10.920;2023-03-01T07:28:32;21.60;;;13.30;;
6739;SDS011;3407;49.882;10.920;2023-03-01T07:33:31;22.47;;;14.60;;
6739;SDS011;3407;49.882;10.920;2023-03-01T07:38:27;29.17;;;16.80;;
6739;SDS011;3407;49.882;10.920;2023-03-01T07:43:23;18.97;;;10.97;;
6739;SDS011;3407;49.882;10.920;2023-03-01T07:48:19;19.53;;;11.73;;
6739;SDS011;3407;49.882;10.920;2023-03-01T07:53:14;18.47;;;12.13;;
6739;SDS011;3407;49.882;10.920;2023-03-01T07:58:10;23.47;;;11.63;;
6739;SDS011;3407;49.882;10.920;2023-03-01T08:03:05;19.13;;;11.50;;
6739;SDS011;3407;49.882;10.920;2023-03-01T08:08:01;18.83;;;12.13;;
6739;SDS011;3407;49.882;10.920;2023-03-01T08:12:56;17.53;;;12.50;;
6739;SDS011;3407;49.882;10.920;2023-03-01T08:17:52;16.40;;;11.23;;
6739;SDS011;3407;49.882;10.920;2023-03-01T08:22:47;15.77;;;11.20;;
6739;SDS011;3407;49.882;10.920;2023-03-01T08:27:43;15.93;;;11.80;;
6739;SDS011;3407;49.882;10.920;2023-03-01T08:32:38;20.63;;;12.63;;
6739;SDS011;3407;49.882;10.920;2023-03-01T08:37:34;16.17;;;13.07;;
6739;SDS011;3407;49.882;10.920;2023-03-01T08:42:30;20.10;;;12.37;;
6739;SDS011;3407;49.882;10.920;2023-03-01T08:47:25;15.07;;;12.07;;
6739;SDS011;3407;49.882;10.920;2023-03-01T08:52:21;15.63;;;11.53;;
6739;SDS011;3407;49.882;10.920;2023-03-01T08:57:17;16.20;;;11.83;;
6739;SDS011;3407;49.882;10.920;2023-03-01T09:02:14;16.83;;;11.70;;
6739;SDS011;3407;49.882;10.920;2023-03-01T09:07:11;17.80;;;11.73;;
6739;SDS011;3407;49.882;10.920;2023-03-01T09:12:06;14.43;;;11.07;;
6739;SDS011;3407;49.882;10.920;2023-03-01T09:17:02;14.67;;;11.07;;
6739;SDS011;3407;49.882;10.920;2023-03-01T09:21:58;17.87;;;10.53;;
6739;SDS011;3407;49.882;10.920;2023-03-01T09:26:54;15.73;;;11.20;;
6739;SDS011;3407;49.882;10.920;2023-03-01T09:31:50;22.40;;;13.63;;
6739;SDS011;3407;49.882;10.920;2023-03-01T09:36:46;18.03;;;11.87;;
6739;SDS011;3407;49.882;10.920;2023-03-01T09:42:00;14.60;;;10.30;;
6739;SDS011;3407;49.882;10.920;2023-03-01T09:46:59;18.17;;;12.57;;
6739;SDS011;3407;49.882;10.920;2023-03-01T09:57:24;15.00;;;10.97;;
6739;SDS011;3407;49.882;10.920;2023-03-01T10:02:38;15.03;;;11.43;;
6739;SDS011;3407;49.882;10.920;2023-03-01T10:07:50;16.93;;;10.40;;
6739;SDS011;3407;49.882;10.920;2023-03-01T10:12:57;14.40;;;10.13;;
6739;SDS011;3407;49.882;10.920;2023-03-01T10:17:58;14.23;;;10.23;;
6739;SDS011;3407;49.882;10.920;2023-03-01T10:23:02;14.93;;;10.90;;
6739;SDS011;3407;49.882;10.920;2023-03-01T10:28:05;14.50;;;10.47;;
6739;SDS011;3407;49.882;10.920;2023-03-01T10:33:22;14.00;;;10.83;;
6739;SDS011;3407;49.882;10.920;2023-03-01T10:38:20;14.77;;;10.80;;
6739;SDS011;3407;49.882;10.920;2023-03-01T10:43:16;14.60;;;10.87;;
6739;SDS011;3407;49.882;10.920;2023-03-01T10:48:25;12.53;;;9.47;;
6739;SDS011;3407;49.882;10.920;2023-03-01T10:53:27;16.53;;;10.17;;
6739;SDS011;3407;49.882;10.920;2023-03-01T10:58:31;14.27;;;10.27;;
6739;SDS011;3407;49.882;10.920;2023-03-01T11:03:34;14.40;;;10.03;;
6739;SDS011;3407;49.882;10.920;2023-03-01T11:08:36;17.77;;;10.87;;
6739;SDS011;3407;49.882;10.920;2023-03-01T11:13:33;14.20;;;10.13;;
6739;SDS011;3407;49.882;10.920;2023-03-01T11:18:30;14.17;;;10.57;;
6739;SDS011;3407;49.882;10.920;2023-03-01T11:23:27;15.83;;;11.27;;
6739;SDS011;3407;49.882;10.920;2023-03-01T11:28:23;15.30;;;10.83;;
6739;SDS011;3407;49.882;10.920;2023-03-01T11:38:44;17.33;;;10.33;;
6739;SDS011;3407;49.882;10.920;2023-03-01T11:43:47;14.60;;;10.13;;
6739;SDS011;3407;49.882;10.920;2023-03-01T11:54:26;15.70;;;10.10;;
6739;SDS011;3407;49.882;10.920;2023-03-01T12:05:02;16.60;;;10.77;;
6739;SDS011;3407;49.882;10.920;2023-03-01T12:15:24;14.90;;;10.53;;
6739;SDS011;3407;49.882;10.920;2023-03-01T12:20:29;14.23;;;10.10;;
6739;SDS011;3407;49.882;10.920;2023-03-01T12:25:38;16.17;;;11.07;;
6739;SDS011;3407;49.882;10.920;2023-03-01T12:35:55;15.57;;;11.30;;
6739;SDS011;3407;49.882;10.920;2023-03-01T12:46:14;15.67;;;10.43;;
6739;SDS011;3407;49.882;10.920;2023-03-01T12:51:20;16.70;;;9.77;;
6739;SDS011;3407;49.882;10.920;2023-03-01T12:56:20;14.90;;;10.90;;
6739;SDS011;3407;49.882;10.920;2023-03-01T13:01:21;14.33;;;11.07;;
6739;SDS011;3407;49.882;10.920;2023-03-01T13:11:40;13.17;;;9.53;;
6739;SDS011;3407;49.882;10.920;2023-03-01T13:16:40;17.97;;;11.03;;
6739;SDS011;3407;49.882;10.920;2023-03-01T13:21:44;15.33;;;10.50;;
6739;SDS011;3407;49.882;10.920;2023-03-01T13:27:08;14.30;;;10.40;;
6739;SDS011;3407;49.882;10.920;2023-03-01T13:31:59;13.50;;;10.17;;
6739;SDS011;3407;49.882;10.920;2023-03-01T13:37:00;13.53;;;9.87;;
6739;SDS011;3407;49.882;10.920;2023-03-01T13:42:32;12.13;;;9.07;;
6739;SDS011;3407;49.882;10.920;2023-03-01T13:47:25;13.67;;;9.00;;
6739;SDS011;3407;49.882;10.920;2023-03-01T13:57:22;11.43;;;9.00;;
6739;SDS011;3407;49.882;10.920;2023-03-01T14:02:20;11.13;;;8.83;;
6739;SDS011;3407;49.882;10.920;2023-03-01T14:07:20;12.23;;;8.00;;
6739;SDS011;3407;49.882;10.920;2023-03-01T14:22:48;13.07;;;8.20;;
6739;SDS011;3407;49.882;10.920;2023-03-01T14:27:57;15.07;;;9.30;;
6739;SDS011;3407;49.882;10.920;2023-03-01T14:33:28;10.70;;;8.53;;
6739;SDS011;3407;49.882;10.920;2023-03-01T14:38:29;10.77;;;8.30;;
6739;SDS011;3407;49.882;10.920;2023-03-01T14:43:24;11.20;;;8.23;;
6739;SDS011;3407;49.882;10.920;2023-03-01T14:48:21;11.50;;;8.57;;
6739;SDS011;3407;49.882;10.920;2023-03-01T14:53:24;11.27;;;9.07;;
6739;SDS011;3407;49.882;10.920;2023-03-01T14:58:22;11.07;;;8.23;;
6739;SDS011;3407;49.882;10.920;2023-03-01T15:03:41;12.67;;;8.93;;
6739;SDS011;3407;49.882;10.920;2023-03-01T15:08:41;12.17;;;9.00;;
6739;SDS011;3407;49.882;10.920;2023-03-01T15:13:40;11.00;;;8.13;;
6739;SDS011;3407;49.882;10.920;2023-03-01T15:18:36;10.77;;;8.07;;
6739;SDS011;3407;49.882;10.920;2023-03-01T15:23:33;14.07;;;9.33;;
6739;SDS011;3407;49.882;10.920;2023-03-01T15:28:30;13.00;;;8.80;;
6739;SDS011;3407;49.882;10.920;2023-03-01T15:33:36;11.17;;;8.97;;
6739;SDS011;3407;49.882;10.920;2023-03-01T15:38:34;15.23;;;10.33;;
6739;SDS011;3407;49.882;10.920;2023-03-01T15:43:47;12.57;;;8.77;;
6739;SDS011;3407;49.882;10.920;2023-03-01T15:48:45;13.07;;;8.50;;
6739;SDS011;3407;49.882;10.920;2023-03-01T15:53:46;19.17;;;9.27;;
6739;SDS011;3407;49.882;10.920;2023-03-01T15:58:47;14.20;;;8.80;;
6739;SDS011;3407;49.882;10.920;2023-03-01T16:03:43;11.80;;;8.57;;
6739;SDS011;3407;49.882;10.920;2023-03-01T16:08:39;13.83;;;9.70;;
6739;SDS011;3407;49.882;10.920;2023-03-01T16:13:35;12.20;;;9.17;;
6739;SDS011;3407;49.882;10.920;2023-03-01T16:18:30;16.23;;;9.00;;
6739;SDS011;3407;49.882;10.920;2023-03-01T16:23:26;20.23;;;9.73;;
6739;SDS011;3407;49.882;10.920;2023-03-01T16:28:21;15.30;;;9.27;;
6739;SDS011;3407;49.882;10.920;2023-03-01T16:33:17;14.07;;;9.87;;
6739;SDS011;3407;49.882;10.920;2023-03-01T16:38:13;16.00;;;10.13;;
6739;SDS011;3407;49.882;10.920;2023-03-01T16:43:08;17.03;;;9.73;;
6739;SDS011;3407;49.882;10.920;2023-03-01T16:48:04;16.00;;;9.50;;
6739;SDS011;3407;49.882;10.920;2023-03-01T16:53:00;15.70;;;10.23;;
6739;SDS011;3407;49.882;10.920;2023-03-01T16:57:55;17.30;;;10.33;;
6739;SDS011;3407;49.882;10.920;2023-03-01T17:02:51;19.57;;;11.43;;
6739;SDS011;3407;49.882;10.920;2023-03-01T17:07:48;22.37;;;12.23;;
6739;SDS011;3407;49.882;10.920;2023-03-01T17:12:43;17.93;;;11.07;;
6739;SDS011;3407;49.882;10.920;2023-03-01T17:17:39;14.87;;;10.53;;
6739;SDS011;3407;49.882;10.920;2023-03-01T17:22:34;18.50;;;12.17;;
6739;SDS011;3407;49.882;10.920;2023-03-01T17:27:30;22.87;;;13.00;;
6739;SDS011;3407;49.882;10.920;2023-03-01T17:32:29;17.87;;;10.90;;
6739;SDS011;3407;49.882;10.920;2023-03-01T17:37:24;20.57;;;13.20;;
6739;SDS011;3407;49.882;10.920;2023-03-01T17:42:20;25.40;;;14.63;;
6739;SDS011;3407;49.882;10.920;2023-03-01T17:47:15;22.63;;;13.40;;
6739;SDS011;3407;49.882;10.920;2023-03-01T17:52:11;22.10;;;13.30;;
6739;SDS011;3407;49.882;10.920;2023-03-01T17:57:06;23.40;;;12.87;;
6739;SDS011;3407;49.882;10.920;2023-03-01T18:02:02;17.20;;;11.13;;
6739;SDS011;3407;49.882;10.920;2023-03-01T18:06:58;19.80;;;12.37;;
6739;SDS011;3407;49.882;10.920;2023-03-01T18:11:53;19.03;;;11.93;;
6739;SDS011;3407;49.882;10.920;2023-03-01T18:16:49;20.03;;;12.60;;
6739;SDS011;3407;49.882;10.920;2023-03-01T18:21:44;24.53;;;14.93;;
6739;SDS011;3407;49.882;10.920;2023-03-01T18:26:40;27.10;;;15.83;;
6739;SDS011;3407;49.882;10.920;2023-03-01T18:31:36;19.60;;;12.20;;
6739;SDS011;3407;49.882;10.920;2023-03-01T18:36:32;20.27;;;12.40;;
6739;SDS011;3407;49.882;10.920;2023-03-01T18:41:29;23.13;;;12.93;;
6739;SDS011;3407;49.882;10.920;2023-03-01T18:46:26;20.23;;;12.47;;
6739;SDS011;3407;49.882;10.920;2023-03-01T18:51:23;25.07;;;13.80;;
6739;SDS011;3407;49.882;10.920;2023-03-01T18:56:20;22.70;;;14.37;;
6739;SDS011;3407;49.882;10.920;2023-03-01T19:01:17;22.20;;;12.37;;
6739;SDS011;3407;49.882;10.920;2023-03-01T19:06:16;21.63;;;12.63;;
6739;SDS011;3407;49.882;10.920;2023-03-01T19:11:13;22.10;;;12.47;;
6739;SDS011;3407;49.882;10.920;2023-03-01T19:16:15;20.03;;;12.70;;
6739;SDS011;3407;49.882;10.920;2023-03-01T19:21:12;27.43;;;13.57;;
6739;SDS011;3407;49.882;10.920;2023-03-01T19:26:09;23.53;;;14.37;;
6739;SDS011;3407;49.882;10.920;2023-03-01T19:31:08;21.67;;;14.63;;
6739;SDS011;3407;49.882;10.920;2023-03-01T19:36:06;27.03;;;16.13;;
6739;SDS011;3407;49.882;10.920;2023-03-01T19:41:03;30.90;;;17.07;;
6739;SDS011;3407;49.882;10.920;2023-03-01T19:46:00;29.53;;;18.57;;
6739;SDS011;3407;49.882;10.920;2023-03-01T19:50:55;28.50;;;16.33;;
6739;SDS011;3407;49.882;10.920;2023-03-01T19:55:56;26.03;;;14.87;;
6739;SDS011;3407;49.882;10.920;2023-03-01T20:00:53;26.93;;;16.43;;
6739;SDS011;3407;49.882;10.920;2023-03-01T20:05:55;25.93;;;15.20;;
6739;SDS011;3407;49.882;10.920;2023-03-01T20:10:52;28.07;;;14.73;;
6739;SDS011;3407;49.882;10.920;2023-03-01T20:15:47;28.20;;;16.03;;
6739;SDS011;3407;49.882;10.920;2023-03-01T20:20:47;26.93;;;15.67;;
6739;SDS011;3407;49.882;10.920;2023-03-01T20:25:44;26.03;;;15.90;;
6739;SDS011;3407;49.882;10.920;2023-03-01T20:30:40;27.23;;;16.17;;
6739;SDS011;3407;49.882;10.920;2023-03-01T20:35:39;22.70;;;14.90;;
6739;SDS011;3407;49.882;10.920;2023-03-01T20:40:36;27.03;;;16.50;;
6739;SDS011;3407;49.882;10.920;2023-03-01T20:45:32;32.67;;;15.83;;
6739;SDS011;3407;49.882;10.920;2023-03-01T20:50:27;25.87;;;14.37;;
6739;SDS011;3407;49.882;10.920;2023-03-01T20:55:23;34.23;;;17.17;;
6739;SDS011;3407;49.882;10.920;2023-03-01T21:00:18;29.13;;;16.90;;
6739;SDS011;3407;49.882;10.920;2023-03-01T21:05:14;29.10;;;17.37;;
6739;SDS011;3407;49.882;10.920;2023-03-01T21:10:09;29.33;;;16.90;;
6739;SDS011;3407;49.882;10.920;2023-03-01T21:15:05;29.43;;;16.70;;
6739;SDS011;3407;49.882;10.920;2023-03-01T21:20:01;33.97;;;17.30;;
6739;SDS011;3407;49.882;10.920;2023-03-01T21:24:58;34.37;;;18.30;;
6739;SDS011;3407;49.882;10.920;2023-03-01T21:29:54;35.20;;;18.77;;
6739;SDS011;3407;49.882;10.920;2023-03-01T21:34:49;31.90;;;17.80;;
6739;SDS011;3407;49.882;10.920;2023-03-01T21:39:45;34.97;;;18.40;;
6739;SDS011;3407;49.882;10.920;2023-03-01T21:44:40;61.43;;;22.67;;
6739;SDS011;3407;49.882;10.920;2023-03-01T21:49:36;29.70;;;16.57;;
6739;SDS011;3407;49.882;10.920;2023-03-01T21:54:32;25.17;;;14.70;;
6739;SDS011;3407;49.882;10.920;2023-03-01T21:59:27;41.33;;;17.60;;
6739;SDS011;3407;49.882;10.920;2023-03-01T22:04:23;30.53;;;17.47;;
6739;SDS011;3407;49.882;10.920;2023-03-01T22:09:20;40.43;;;18.97;;
6739;SDS011;3407;49.882;10.920;2023-03-01T22:14:17;39.87;;;18.30;;
6739;SDS011;3407;49.882;10.920;2023-03-01T22:19:14;30.93;;;16.60;;
6739;SDS011;3407;49.882;10.920;2023-03-01T22:24:10;26.17;;;15.70;;
6739;SDS011;3407;49.882;10.920;2023-03-01T22:29:07;25.03;;;14.17;;
6739;SDS011;3407;49.882;10.920;2023-03-01T22:34:04;25.33;;;14.73;;
6739;SDS011;3407;49.882;10.920;2023-03-01T22:39:00;28.60;;;15.53;;
6739;SDS011;3407;49.882;10.920;2023-03-01T22:43:56;26.33;;;15.30;;
6739;SDS011;3407;49.882;10.920;2023-03-01T22:48:52;30.00;;;16.47;;
6739;SDS011;3407;49.882;10.920;2023-03-01T22:53:47;29.67;;;16.40;;
6739;SDS011;3407;49.882;10.920;2023-03-01T22:58:43;36.27;;;19.47;;
6739;SDS011;3407;49.882;10.920;2023-03-01T23:03:39;32.00;;;17.23;;
6739;SDS011;3407;49.882;10.920;2023-03-01T23:08:34;32.23;;;16.67;;
6739;SDS011;3407;49.882;10.920;2023-03-01T23:13:30;31.60;;;17.70;;
6739;SDS011;3407;49.882;10.920;2023-03-01T23:18:25;29.10;;;16.30;;
6739;SDS011;3407;49.882;10.920;2023-03-01T23:23:21;25.57;;;15.13;;
6739;SDS011;3407;49.882;10.920;2023-03-01T23:28:16;28.63;;;15.13;;
6739;SDS011;3407;49.882;10.920;2023-03-01T23:33:12;25.00;;;15.63;;
6739;SDS011;3407;49.882;10.920;2023-03-01T23:38:07;33.40;;;14.93;;
6739;SDS011;3407;49.882;10.920;2023-03-01T23:43:03;26.83;;;15.00;;
6739;SDS011;3407;49.882;10.920;2023-03-01T23:47:58;26.33;;;14.80;;
6739;SDS011;3407;49.882;10.920;2023-03-01T23:52:54;31.40;;;15.20;;
6739;SDS011;3407;49.882;10.920;2023-03-01T23:57:49;24.77;;;14.27;;
